Time;durP1;ratioP1;P1;durP2;ratioP2;P2;SDS_P1;SDS_P2;PMS_P1;PMS_P2;Temp;Humidity;BMP_temperature;BMP_pressure;BME280_temperature;BME280_humidity;BME280_pressure;Samples;Min_cycle;Max_cycle;Signal;HPM_P1;HPM_P2
2022/01/16 00:04:17;;;;;;;27.02;4.97;;;;;;;25.01;30.58;94708.13;5019305;28;20050;-58
2022/01/16 00:06:46;;;;;;;23.95;4.80;;;;;;;25.01;30.30;94724.06;4991016;28;20060;-58
2022/01/16 00:09:11;;;;;;;19.17;4.50;;;;;;;24.97;30.62;94726.50;4996589;28;20276;-58
2022/01/16 00:11:40;;;;;;;20.67;5.05;;;;;;;25.01;30.56;94734.72;5008475;28;20045;-58
2022/01/16 00:14:08;;;;;;;17.83;5.32;;;;;;;24.95;30.48;94753.38;5010861;28;20060;-58
2022/01/16 00:16:33;;;;;;;15.82;4.40;;;;;;;25.01;30.50;94721.41;5008459;28;20052;-58
2022/01/16 00:19:02;;;;;;;23.60;4.85;;;;;;;25.02;30.54;94694.53;4986869;28;20049;-58
2022/01/16 00:21:36;;;;;;;18.52;4.88;;;;;;;25.00;30.23;94703.84;5006362;28;20092;-58
2022/01/16 00:24:10;;;;;;;20.33;4.72;;;;;;;25.02;30.55;94729.13;5009780;28;20207;-59
2022/01/16 00:26:47;;;;;;;17.13;4.60;;;;;;;25.00;30.38;94707.34;4989875;28;20036;-58
2022/01/16 00:29:13;;;;;;;17.92;4.35;;;;;;;24.97;30.37;94695.38;5037263;28;20037;-58
2022/01/16 00:31:39;;;;;;;14.50;4.43;;;;;;;24.99;30.32;94708.38;5014852;28;20034;-58
2022/01/16 00:34:05;;;;;;;16.60;4.90;;;;;;;24.92;30.54;94721.22;4993198;28;20030;-58
2022/01/16 00:36:31;;;;;;;14.73;3.90;;;;;;;24.93;30.63;94742.22;5012471;28;20045;-58
2022/01/16 00:39:01;;;;;;;16.30;4.13;;;;;;;24.92;30.29;94711.41;5015203;28;20034;-59
2022/01/16 00:41:27;;;;;;;15.10;4.20;;;;;;;25.00;30.23;94727.81;5010954;28;20030;-58
2022/01/16 00:43:54;;;;;;;17.55;4.43;;;;;;;25.02;30.04;94720.31;5007100;28;20038;-58
2022/01/16 00:46:22;;;;;;;15.23;4.63;;;;;;;25.00;30.63;94735.78;5026475;28;20095;-58
2022/01/16 00:48:50;;;;;;;11.27;3.95;;;;;;;24.96;30.47;94733.69;5009117;28;20128;-58
2022/01/16 00:51:16;;;;;;;15.93;4.13;;;;;;;24.98;30.37;94734.22;5012568;28;20113;-58
2022/01/16 00:53:43;;;;;;;15.77;4.30;;;;;;;25.00;30.22;94744.56;5024350;28;20083;-58
2022/01/16 00:56:08;;;;;;;17.50;4.47;;;;;;;24.97;30.26;94745.91;5011925;28;20029;-59
2022/01/16 00:58:34;;;;;;;12.52;3.80;;;;;;;24.97;30.48;94743.25;5015450;28;20072;-58
2022/01/16 01:01:08;;;;;;;14.18;4.05;;;;;;;24.92;30.35;94745.97;5022976;28;20033;-58
2022/01/16 01:03:37;;;;;;;11.98;3.67;;;;;;;24.96;30.26;94740.91;5024443;28;20037;-58
2022/01/16 01:06:02;;;;;;;16.02;4.40;;;;;;;25.03;30.22;94753.84;5015442;28;20037;-58
2022/01/16 01:08:40;;;;;;;13.07;4.13;;;;;;;24.95;30.60;94752.59;5012620;28;20047;-58
2022/01/16 01:11:10;;;;;;;12.95;4.05;;;;;;;24.97;30.22;94714.00;5021328;28;20112;-58
2022/01/16 01:14:26;;;;;;;15.82;4.40;;;;;;;24.94;30.40;94679.97;5015231;28;20041;-59
2022/01/16 01:16:48;;;;;;;14.05;3.80;;;;;;;25.00;30.30;94670.09;5011846;28;20046;-59
2022/01/16 01:19:27;;;;;;;10.02;3.75;;;;;;;24.95;30.73;94654.16;5005780;28;20034;-59
2022/01/16 01:21:55;;;;;;;15.02;3.85;;;;;;;24.95;30.50;94656.81;5016201;28;20038;-59
2022/01/16 01:24:21;;;;;;;13.07;4.10;;;;;;;24.95;30.19;94678.88;4996485;28;20108;-57
2022/01/16 01:27:11;;;;;;;12.40;3.55;;;;;;;24.94;30.34;94703.91;5019743;28;20040;-57
2022/01/16 01:29:54;;;;;;;14.38;4.47;;;;;;;25.01;30.37;94710.78;5025877;28;20048;-57
2022/01/16 01:32:20;;;;;;;9.80;3.80;;;;;;;24.96;30.45;94728.38;5032411;28;20068;-57
2022/01/16 01:34:46;;;;;;;11.70;3.78;;;;;;;24.95;30.24;94745.41;5013034;28;20042;-56
2022/01/16 01:37:14;;;;;;;13.25;3.65;;;;;;;25.00;30.41;94759.72;5011205;28;20033;-57
2022/01/16 01:39:42;;;;;;;11.30;3.83;;;;;;;25.01;30.46;94766.66;5007082;28;20069;-57
2022/01/16 01:42:20;;;;;;;12.90;3.70;;;;;;;24.95;30.44;94773.88;5007898;28;20123;-57
2022/01/16 01:53:05;;;;;;;10.85;3.80;;;;;;;24.95;30.19;94779.19;5015063;28;20104;-57
2022/01/16 01:55:32;;;;;;;11.07;3.70;;;;;;;24.97;30.29;94775.19;5014926;28;20041;-57
2022/01/16 01:57:58;;;;;;;16.13;3.83;;;;;;;24.91;30.28;94786.94;5019064;28;20041;-57
2022/01/16 02:00:23;;;;;;;8.90;3.20;;;;;;;24.95;30.27;94793.28;5016570;28;20129;-57
2022/01/16 02:03:13;;;;;;;9.68;3.42;;;;;;;24.89;30.58;94802.38;5020130;28;20084;-57
2022/01/16 02:05:40;;;;;;;10.98;3.53;;;;;;;24.95;30.48;94803.94;5016242;28;20167;-57
2022/01/16 02:08:06;;;;;;;10.30;4.05;;;;;;;24.92;30.37;94801.84;5023883;28;20038;-57
2022/01/16 02:10:32;;;;;;;11.35;3.85;;;;;;;24.95;30.27;94808.47;5001501;28;20049;-57
2022/01/16 02:13:03;;;;;;;9.93;3.50;;;;;;;24.95;30.15;94809.25;5035385;28;20042;-57
2022/01/16 02:30:34;;;;;;;7.10;3.08;;;;;;;24.98;30.14;94795.41;5020883;28;20040;-57
2022/01/16 02:35:03;;;;;;;9.27;3.35;;;;;;;24.89;30.37;94791.75;4970416;28;20042;-57
2022/01/16 02:37:31;;;;;;;8.23;3.13;;;;;;;24.92;30.67;94782.41;4980183;28;20050;-57
2022/01/16 02:40:04;;;;;;;9.35;3.10;;;;;;;24.91;30.37;94772.84;4980645;28;20038;-57
2022/01/16 02:42:38;;;;;;;10.00;3.25;;;;;;;24.89;30.44;94778.44;4971235;28;20047;-57
2022/01/16 02:45:17;;;;;;;10.95;3.42;;;;;;;24.92;30.43;94764.59;4985839;28;20057;-57
2022/01/16 02:47:45;;;;;;;5.13;2.80;;;;;;;24.98;30.50;94755.50;4979137;28;20053;-57
2022/01/16 02:50:10;;;;;;;9.48;3.10;;;;;;;24.90;30.35;94749.97;4955170;28;20125;-57
2022/01/16 02:52:36;;;;;;;9.50;3.42;;;;;;;24.96;30.13;94752.31;4961574;28;20064;-57
2022/01/16 02:55:07;;;;;;;9.48;3.22;;;;;;;24.92;30.37;94738.00;4971120;28;20124;-57
2022/01/16 02:57:35;;;;;;;11.85;3.38;;;;;;;24.94;30.23;94733.19;4970283;28;20141;-57
2022/01/16 03:00:12;;;;;;;7.22;3.40;;;;;;;24.93;30.29;94728.94;4964394;28;20148;-57
2022/01/16 03:02:42;;;;;;;6.50;2.85;;;;;;;24.92;30.24;94727.34;4983101;28;20042;-57
2022/01/16 03:05:11;;;;;;;8.75;3.45;;;;;;;24.97;30.18;94732.59;5019317;28;20095;-57
2022/01/16 03:07:39;;;;;;;6.72;2.97;;;;;;;24.94;30.10;94735.84;5022537;28;20057;-57
2022/01/16 03:12:53;;;;;;;6.57;3.20;;;;;;;24.96;30.21;94728.38;5008961;28;20096;-57
2022/01/16 03:15:18;;;;;;;6.70;2.97;;;;;;;24.94;30.20;94738.50;5008242;28;20049;-57
2022/01/16 03:23:13;;;;;;;9.43;2.97;;;;;;;24.89;30.52;94746.53;5007833;28;20085;-57
2022/01/16 03:25:43;;;;;;;7.05;2.72;;;;;;;24.93;29.84;94736.91;5014135;28;20033;-57
2022/01/16 03:28:11;;;;;;;7.47;2.78;;;;;;;24.96;30.13;94736.34;5016191;28;20128;-57
2022/01/16 03:30:37;;;;;;;7.50;3.00;;;;;;;25.00;30.17;94736.59;5019014;28;20054;-57
2022/01/16 03:33:05;;;;;;;7.55;2.80;;;;;;;24.93;30.31;94738.78;5009785;28;20033;-57
2022/01/16 03:35:41;;;;;;;7.63;2.88;;;;;;;24.96;29.99;94733.69;5008373;28;20057;-57
2022/01/16 03:38:06;;;;;;;7.78;2.80;;;;;;;24.98;30.01;94746.72;5011295;28;20045;-57
2022/01/16 03:40:33;;;;;;;8.30;2.80;;;;;;;24.98;29.90;94746.72;5021037;28;20121;-57
2022/01/16 03:42:59;;;;;;;6.65;2.70;;;;;;;24.91;29.94;94757.69;5021495;28;20033;-57
2022/01/16 03:45:26;;;;;;;8.32;3.42;;;;;;;24.86;30.22;94752.38;5019730;28;20045;-57
2022/01/16 03:47:51;;;;;;;7.57;3.28;;;;;;;24.87;30.15;94756.66;5014966;28;20038;-57
2022/01/16 03:50:19;;;;;;;6.93;3.15;;;;;;;24.91;30.22;94755.00;4995272;28;20125;-57
2022/01/16 03:52:54;;;;;;;8.82;2.90;;;;;;;24.92;30.15;94761.94;5009049;28;20029;-57
2022/01/16 03:55:21;;;;;;;6.78;2.90;;;;;;;24.90;30.14;94769.41;5019877;28;20046;-57
2022/01/16 03:57:47;;;;;;;6.78;2.95;;;;;;;24.92;30.11;94772.56;5016497;28;20067;-57
2022/01/16 04:00:13;;;;;;;9.52;2.97;;;;;;;24.94;29.91;94770.44;5020367;28;20076;-57
2022/01/16 04:02:38;;;;;;;5.00;2.88;;;;;;;24.91;30.38;94773.63;5014862;28;20026;-57
2022/01/16 04:05:07;;;;;;;7.43;2.58;;;;;;;24.92;30.10;94771.75;5018658;28;20069;-57
2022/01/16 04:07:35;;;;;;;5.75;2.90;;;;;;;24.94;30.09;94767.78;5012253;28;20045;-57
2022/01/16 04:10:08;;;;;;;6.97;3.47;;;;;;;24.89;30.17;94757.16;4996953;28;20159;-57
2022/01/16 04:12:37;;;;;;;7.15;2.72;;;;;;;24.91;30.24;94765.66;5008204;28;20041;-57
2022/01/16 04:17:30;;;;;;;5.30;2.65;;;;;;;24.92;29.94;94761.13;5013718;28;20046;-57
2022/01/16 04:19:55;;;;;;;4.18;2.60;;;;;;;24.94;30.12;94758.97;4992262;28;20037;-57
2022/01/16 04:22:21;;;;;;;5.70;2.70;;;;;;;24.97;29.84;94761.09;5013839;28;20041;-57
2022/01/16 04:24:57;;;;;;;7.03;2.63;;;;;;;24.93;30.04;94765.38;5016907;28;20026;-57
2022/01/16 04:27:23;;;;;;;5.78;2.80;;;;;;;24.88;29.97;94766.22;5014279;28;20038;-57
2022/01/16 04:29:48;;;;;;;7.57;2.85;;;;;;;24.91;29.93;94770.97;5014664;28;20034;-57
2022/01/16 04:32:14;;;;;;;3.78;2.40;;;;;;;24.86;30.18;94770.22;5016562;28;20064;-57
2022/01/16 04:34:40;;;;;;;7.32;2.72;;;;;;;24.85;30.31;94766.78;5001795;28;20029;-57
2022/01/16 04:37:05;;;;;;;7.10;2.85;;;;;;;24.89;30.14;94761.69;5008550;28;20037;-57
2022/01/16 04:39:35;;;;;;;6.03;2.55;;;;;;;24.89;29.97;94761.69;5012540;28;20030;-57
2022/01/16 04:44:49;;;;;;;4.82;2.55;;;;;;;24.93;30.15;94760.06;5009048;28;20049;-57
2022/01/16 04:47:16;;;;;;;5.68;2.58;;;;;;;24.85;30.30;94761.47;5006752;28;20030;-57
2022/01/16 04:49:45;;;;;;;6.05;2.70;;;;;;;24.92;30.10;94759.28;5015817;28;20148;-57
2022/01/16 04:52:33;;;;;;;5.57;2.63;;;;;;;24.95;29.83;94752.59;5007277;28;20033;-57
2022/01/16 04:54:59;;;;;;;6.72;2.55;;;;;;;24.87;30.05;94754.00;5021150;28;20037;-57
2022/01/16 04:57:25;;;;;;;5.35;2.70;;;;;;;24.87;30.23;94764.63;5001342;28;20104;-57
2022/01/16 04:59:50;;;;;;;6.85;2.55;;;;;;;24.92;29.97;94759.28;4988182;28;20045;-57
2022/01/16 05:02:20;;;;;;;5.72;2.60;;;;;;;24.91;30.16;94759.56;5002475;28;20080;-57
2022/01/16 05:04:48;;;;;;;4.78;2.45;;;;;;;24.97;30.08;94764.53;5019805;28;20049;-57
2022/01/16 05:07:31;;;;;;;4.55;2.35;;;;;;;24.90;30.19;94764.09;4957821;28;20118;-57
2022/01/16 05:09:57;;;;;;;4.28;2.70;;;;;;;24.94;30.27;94767.78;4939767;28;20211;-57
2022/01/16 05:12:29;;;;;;;3.92;2.55;;;;;;;24.96;29.99;94762.19;4959895;28;20062;-57
2022/01/16 05:17:41;;;;;;;4.78;2.70;;;;;;;24.93;29.80;94768.84;4944912;28;20050;-57
2022/01/16 05:20:07;;;;;;;4.63;2.33;;;;;;;24.92;29.93;94771.75;4959409;28;20074;-57
2022/01/16 05:22:36;;;;;;;5.82;2.58;;;;;;;24.93;30.02;94779.47;4964284;28;20043;-57
2022/01/16 05:25:07;;;;;;;6.65;2.78;;;;;;;24.90;30.18;94785.38;4969359;28;20046;-57
2022/01/16 05:27:35;;;;;;;7.20;2.63;;;;;;;24.98;30.25;94782.09;4957063;28;20055;-57
2022/01/16 05:30:07;;;;;;;6.22;2.42;;;;;;;24.95;30.08;94787.19;4961328;28;20125;-57
2022/01/16 05:32:36;;;;;;;5.75;2.67;;;;;;;24.97;29.52;94801.78;4986853;28;20054;-57
2022/01/16 05:35:05;;;;;;;8.25;3.08;;;;;;;24.96;28.82;94794.88;4955294;28;20050;-57
2022/01/16 05:37:30;;;;;;;4.65;2.55;;;;;;;24.99;29.05;94801.50;4976037;28;20050;-57
2022/01/16 05:39:56;;;;;;;4.15;2.58;;;;;;;25.00;28.81;94810.28;5022480;28;20116;-57
2022/01/16 05:42:21;;;;;;;9.05;3.00;;;;;;;25.03;29.10;94820.38;5017927;28;20096;-57
2022/01/16 05:44:47;;;;;;;3.95;2.58;;;;;;;25.01;28.38;94823.31;5024652;28;20045;-57
2022/01/16 05:47:17;;;;;;;5.55;2.97;;;;;;;24.96;28.61;94828.69;5023805;28;20045;-57
2022/01/16 05:49:43;;;;;;;4.90;2.60;;;;;;;24.94;28.64;94826.31;5023012;28;20030;-57
2022/01/16 05:52:09;;;;;;;4.35;2.58;;;;;;;24.91;28.35;94832.16;5016110;28;20053;-57
2022/01/16 05:54:34;;;;;;;6.32;2.97;;;;;;;24.92;28.44;94839.09;5018875;28;20065;-57
2022/01/16 05:57:00;;;;;;;4.63;2.70;;;;;;;24.94;28.59;94844.91;5011276;28;20041;-57
2022/01/16 05:59:27;;;;;;;5.15;2.80;;;;;;;24.95;28.24;94845.72;5016144;28;20060;-57
2022/01/16 06:01:56;;;;;;;6.20;2.70;;;;;;;24.95;28.49;94845.72;5018425;28;20129;-57
2022/01/16 06:04:26;;;;;;;6.90;2.42;;;;;;;24.89;28.32;94852.16;5017598;28;20038;-57
2022/01/16 06:06:52;;;;;;;4.63;2.53;;;;;;;24.92;28.35;94847.06;5032994;28;20038;-57
2022/01/16 06:09:17;;;;;;;7.00;2.40;;;;;;;24.96;28.60;94858.75;5007863;28;20045;-57
2022/01/16 06:11:43;;;;;;;6.18;2.50;;;;;;;25.01;28.31;94865.09;5015031;28;20034;-57
2022/01/16 06:14:08;;;;;;;5.22;2.50;;;;;;;25.02;28.43;94859.50;5012039;28;20034;-56
2022/01/16 06:16:35;;;;;;;6.03;2.95;;;;;;;25.05;28.51;94866.13;5015193;28;20040;-56
2022/01/16 06:19:01;;;;;;;7.18;2.53;;;;;;;25.00;28.32;94864.31;5010988;28;20087;-57
2022/01/16 06:21:28;;;;;;;7.45;2.90;;;;;;;24.96;28.40;94869.38;4993745;28;20037;-57
2022/01/16 06:23:55;;;;;;;6.00;2.50;;;;;;;24.96;28.45;94871.25;5010205;28;20026;-57
2022/01/16 06:26:21;;;;;;;6.30;2.42;;;;;;;25.01;28.40;94870.41;5014522;28;20129;-57
2022/01/16 06:28:49;;;;;;;7.40;3.55;;;;;;;25.01;28.51;94873.06;4983698;28;20148;-57
2022/01/16 06:31:17;;;;;;;6.85;2.53;;;;;;;25.01;28.64;94871.19;5011883;28;20053;-57
2022/01/16 06:33:45;;;;;;;7.57;2.75;;;;;;;25.00;28.40;94858.16;5010550;28;20159;-57
2022/01/16 06:36:13;;;;;;;8.98;2.40;;;;;;;24.99;28.59;94868.03;5010982;28;20116;-58
2022/01/16 06:38:38;;;;;;;7.53;2.80;;;;;;;25.01;28.30;94873.06;4998970;28;20056;-58
2022/01/16 06:41:09;;;;;;;9.93;2.60;;;;;;;24.95;28.74;94874.97;5023921;28;20168;-58
2022/01/16 06:43:35;;;;;;;7.03;2.30;;;;;;;24.99;28.52;94876.00;5029147;28;20038;-58
2022/01/16 06:46:01;;;;;;;9.00;2.60;;;;;;;25.00;29.02;94895.41;5010682;28;20040;-58
2022/01/16 06:48:28;;;;;;;10.30;2.65;;;;;;;25.00;29.19;94898.91;5024367;28;20120;-58
2022/01/16 06:50:53;;;;;;;6.78;2.20;;;;;;;25.03;28.71;94900.97;5010648;28;20038;-58
2022/01/16 06:53:19;;;;;;;6.95;2.30;;;;;;;25.06;28.42;94916.41;5011132;28;20099;-58
2022/01/16 06:55:44;;;;;;;6.03;2.20;;;;;;;25.06;28.46;94919.06;5013887;28;20057;-58
2022/01/16 06:58:19;;;;;;;7.05;2.70;;;;;;;25.00;28.75;94917.53;5017307;28;20033;-58
2022/01/16 07:00:44;;;;;;;8.07;2.30;;;;;;;25.03;28.43;94921.47;5019085;28;20038;-57
2022/01/16 07:03:10;;;;;;;9.70;2.42;;;;;;;24.97;28.66;94928.69;5029444;28;20036;-58
2022/01/16 07:05:37;;;;;;;9.95;2.63;;;;;;;25.03;28.67;94926.81;5014992;28;20041;-58
2022/01/16 07:08:03;;;;;;;8.10;2.40;;;;;;;24.96;28.90;94927.13;5022162;28;20045;-58
2022/01/16 07:10:28;;;;;;;6.40;2.45;;;;;;;25.01;28.77;94919.09;5034647;28;20037;-58
2022/01/16 07:12:59;;;;;;;5.72;2.30;;;;;;;24.94;29.01;94922.06;5009779;28;20045;-58
2022/01/16 07:15:30;;;;;;;;;;;;;;;25.50;28.17;94925.44;5012082;28;20037;-58
2022/01/16 07:17:57;;;;;;;10.15;2.20;;;;;;;25.07;28.53;94931.28;5015992;28;19921;-58
2022/01/16 07:20:23;;;;;;;8.43;2.40;;;;;;;25.06;28.59;94926.25;5010927;28;20045;-58
2022/01/16 07:22:49;;;;;;;7.30;2.30;;;;;;;25.01;28.76;94923.63;5014757;28;20112;-58
2022/01/16 07:25:17;;;;;;;10.68;2.60;;;;;;;24.98;28.99;94925.78;5005536;28;20057;-58
2022/01/16 07:27:45;;;;;;;7.55;2.55;;;;;;;24.98;29.29;94930.31;5017650;28;20044;-58
2022/01/16 07:30:10;;;;;;;5.80;2.33;;;;;;;24.99;29.08;94918.56;5017030;28;20041;-58
2022/01/16 07:32:42;;;;;;;12.00;3.10;;;;;;;24.95;29.31;94904.25;5017605;28;20105;-58
2022/01/16 07:35:10;;;;;;;7.65;3.42;;;;;;;25.02;28.84;94911.91;5010409;28;20033;-58
2022/01/16 07:37:38;;;;;;;7.57;3.20;;;;;;;25.01;28.69;94924.41;5011041;28;20180;-58
2022/01/16 07:40:04;;;;;;;6.70;2.80;;;;;;;24.97;29.25;94916.19;5017482;28;20037;-58
2022/01/16 07:42:34;;;;;;;6.07;2.70;;;;;;;24.97;29.37;94908.19;5006933;28;20037;-58
2022/01/16 07:45:02;;;;;;;7.63;2.80;;;;;;;25.03;29.59;94916.16;5005254;28;20042;-58
2022/01/16 07:47:30;;;;;;;9.13;3.10;;;;;;;24.99;29.80;94921.25;5017490;28;20041;-58
2022/01/16 07:49:55;;;;;;;8.90;2.90;;;;;;;25.03;29.59;94921.47;5025134;28;20040;-58
2022/01/16 07:52:21;;;;;;;7.00;2.92;;;;;;;25.01;29.71;94928.94;5004454;28;20037;-58
2022/01/16 07:54:46;;;;;;;9.20;3.75;;;;;;;24.98;30.33;94946.25;5017080;28;20049;-58
2022/01/16 07:57:12;;;;;;;8.85;3.10;;;;;;;24.94;30.36;94956.66;5016276;28;20042;-58
2022/01/16 07:59:39;;;;;;;12.65;3.70;;;;;;;24.90;30.29;94947.63;5011756;28;20052;-58
2022/01/16 08:02:05;;;;;;;12.38;2.70;;;;;;;24.92;30.61;94950.81;5019480;28;20061;-58
2022/01/16 08:04:39;;;;;;;8.65;2.88;;;;;;;24.96;30.55;94948.41;5012259;28;20037;-58
2022/01/16 08:07:07;;;;;;;10.85;2.78;;;;;;;25.02;30.52;94939.31;5011527;28;20037;-58
2022/01/16 08:09:32;;;;;;;8.38;3.00;;;;;;;25.00;30.04;94930.81;4997918;28;20048;-58
2022/01/16 08:11:58;;;;;;;16.60;3.63;;;;;;;25.04;30.11;94925.75;5019236;28;20037;-58
2022/01/16 08:14:23;;;;;;;10.25;3.50;;;;;;;25.02;30.08;94943.81;5023438;28;20044;-58
2022/01/16 08:16:50;;;;;;;14.40;3.40;;;;;;;24.97;30.51;94945.44;5022686;28;20042;-58
2022/01/16 08:19:15;;;;;;;8.35;3.03;;;;;;;25.00;30.09;94940.66;5013028;28;20042;-58
2022/01/16 08:21:46;;;;;;;8.82;3.08;;;;;;;25.02;30.27;94944.63;5019212;28;20029;-59
2022/01/16 08:24:12;;;;;;;11.80;2.97;;;;;;;25.04;30.10;94941.72;5015941;28;20041;-59
2022/01/16 08:26:37;;;;;;;9.20;3.45;;;;;;;25.04;29.96;94944.38;5016433;28;20061;-58
2022/01/16 08:29:03;;;;;;;9.85;3.10;;;;;;;25.07;29.60;94955.22;5028712;28;20107;-59
2022/01/16 08:31:28;;;;;;;9.52;3.50;;;;;;;25.06;29.87;94951.00;5014384;28;20040;-58
2022/01/16 08:33:56;;;;;;;13.52;3.70;;;;;;;25.06;29.92;94953.66;5020273;28;20036;-58
2022/01/16 08:36:22;;;;;;;8.50;3.00;;;;;;;25.03;29.75;94942.78;5012858;28;20033;-59
2022/01/16 08:38:47;;;;;;;9.23;4.22;;;;;;;25.04;29.46;94947.81;5014996;28;20037;-59
2022/01/16 08:41:16;;;;;;;14.82;3.90;;;;;;;25.01;29.06;94951.03;5017762;28;20044;-59
2022/01/16 08:43:41;;;;;;;13.77;4.55;;;;;;;25.02;29.06;94946.50;5024441;28;20087;-59
2022/01/16 08:46:07;;;;;;;7.35;4.13;;;;;;;25.02;29.20;94947.31;5007527;28;20045;-59
2022/01/16 08:48:32;;;;;;;7.45;3.88;;;;;;;25.07;28.57;94949.13;5020429;28;20400;-59
2022/01/16 08:51:02;;;;;;;11.45;4.18;;;;;;;25.06;28.88;94942.22;4988488;28;20049;-59
2022/01/16 08:53:28;;;;;;;7.97;4.32;;;;;;;25.09;28.66;94946.97;5009660;28;20124;-59
2022/01/16 08:55:55;;;;;;;9.45;3.63;;;;;;;25.12;28.74;94963.19;5007893;28;20034;-58
2022/01/16 08:58:33;;;;;;;8.05;3.78;;;;;;;25.06;28.76;94961.66;5016176;28;20038;-59
2022/01/16 09:00:58;;;;;;;8.63;3.83;;;;;;;25.04;28.66;94973.63;5009688;28;20041;-59
2022/01/16 09:03:24;;;;;;;5.07;3.30;;;;;;;25.05;28.75;94980.53;5015064;28;20037;-59
2022/01/16 09:05:49;;;;;;;7.88;3.35;;;;;;;25.09;28.56;94986.91;5016526;28;20042;-59
2022/01/16 09:08:15;;;;;;;8.73;3.53;;;;;;;25.12;28.47;94994.34;4991322;28;20033;-59
2022/01/16 09:10:46;;;;;;;8.57;3.17;;;;;;;25.06;29.15;94993.56;5016737;28;20037;-59
2022/01/16 09:13:20;;;;;;;6.57;3.30;;;;;;;25.04;29.21;95002.91;5006405;28;20040;-59
2022/01/16 09:15:48;;;;;;;6.88;3.15;;;;;;;25.05;29.10;95009.81;5015486;28;20163;-58
2022/01/16 09:18:14;;;;;;;6.45;3.28;;;;;;;25.04;29.27;95000.25;5022797;28;20060;-58
2022/01/16 09:20:40;;;;;;;5.05;2.90;;;;;;;25.06;29.16;95006.09;5007996;28;20030;-58
2022/01/16 09:23:08;;;;;;;5.75;3.20;;;;;;;25.09;28.95;95008.19;5011984;28;20111;-57
2022/01/16 09:25:36;;;;;;;8.60;3.35;;;;;;;25.08;29.15;95010.06;5014692;28;20022;-57
2022/01/16 09:28:08;;;;;;;9.15;3.17;;;;;;;25.03;29.30;95012.75;5017613;28;20041;-58
2022/01/16 09:30:36;;;;;;;6.32;2.80;;;;;;;25.09;29.24;95010.84;5006918;28;20036;-58
2022/01/16 09:33:01;;;;;;;8.00;3.20;;;;;;;25.11;29.14;95009.53;5006822;28;20028;-58
2022/01/16 09:35:27;;;;;;;6.65;2.97;;;;;;;25.09;29.48;95016.16;5012673;28;20034;-58
2022/01/16 09:37:52;;;;;;;6.40;3.22;;;;;;;25.10;29.45;95018.56;5022439;28;20084;-58
2022/01/16 09:40:20;;;;;;;4.10;2.80;;;;;;;25.09;29.31;95022.31;5009101;28;20052;-58
2022/01/16 09:42:45;;;;;;;5.88;2.90;;;;;;;25.09;29.08;95017.00;5021206;28;20029;-58
2022/01/16 09:45:16;;;;;;;5.72;2.90;;;;;;;25.05;29.38;95031.09;5003906;28;20037;-57
2022/01/16 09:47:46;;;;;;;5.63;3.10;;;;;;;25.04;29.46;95035.63;5007578;28;20044;-58
2022/01/16 09:50:17;;;;;;;5.32;2.78;;;;;;;25.09;29.46;95034.78;5005172;28;20043;-58
2022/01/16 09:52:43;;;;;;;4.57;2.80;;;;;;;25.05;29.34;95039.06;5014364;28;20038;-58
2022/01/16 09:55:11;;;;;;;5.05;3.10;;;;;;;25.04;29.37;95032.19;4986420;28;20124;-58
2022/01/16 09:57:37;;;;;;;5.72;3.13;;;;;;;25.04;29.34;95029.53;5024092;28;20044;-58
2022/01/16 10:00:13;;;;;;;7.43;2.55;;;;;;;25.04;29.86;95032.19;5006436;28;20038;-58
2022/01/16 10:02:42;;;;;;;5.18;2.85;;;;;;;25.04;29.89;95040.94;5012036;28;20068;-58
2022/01/16 10:05:29;;;;;;;7.20;2.67;;;;;;;25.11;29.40;95045.97;4988836;28;20095;-58
2022/01/16 10:07:58;;;;;;;4.47;2.92;;;;;;;25.07;29.78;95048.38;4994459;28;20051;-58
2022/01/16 10:10:37;;;;;;;5.57;2.90;;;;;;;25.06;30.01;95048.66;5006656;28;20026;-58
2022/01/16 10:13:23;;;;;;;4.35;2.65;;;;;;;25.09;29.80;95050.75;5006521;28;20030;-57
2022/01/16 10:15:55;;;;;;;6.55;2.70;;;;;;;25.09;29.99;95045.44;5016904;28;20123;-58
2022/01/16 10:18:40;;;;;;;5.15;2.60;;;;;;;25.08;29.85;95044.66;5025637;28;20040;-58
2022/01/16 10:21:08;;;;;;;2.65;2.42;;;;;;;25.01;29.88;95046.03;5014510;28;20042;-58
2022/01/16 10:23:42;;;;;;;3.70;2.70;;;;;;;25.07;29.77;95047.59;5033507;28;20029;-58
2022/01/16 10:26:29;;;;;;;6.05;2.60;;;;;;;25.08;29.71;95049.97;5030218;28;20042;-58
2022/01/16 10:28:55;;;;;;;6.28;2.38;;;;;;;25.04;30.13;95051.59;5026278;28;20085;-58
2022/01/16 10:31:22;;;;;;;4.80;2.40;;;;;;;25.07;30.04;95055.56;5026696;28;20041;-58
2022/01/16 10:33:48;;;;;;;4.82;2.67;;;;;;;25.06;30.02;95054.00;5044522;28;20380;-58
2022/01/16 10:36:14;;;;;;;3.47;2.67;;;;;;;25.06;29.93;95051.31;5013480;28;20041;-58
2022/01/16 10:38:39;;;;;;;5.22;2.88;;;;;;;25.05;30.23;95041.75;4997382;28;20126;-58
2022/01/16 10:41:09;;;;;;;4.80;3.10;;;;;;;25.06;30.09;95056.66;5019542;28;20033;-58
2022/01/16 10:43:44;;;;;;;3.47;2.53;;;;;;;25.03;30.06;95046.53;5010836;28;20037;-58
2022/01/16 10:46:10;;;;;;;6.57;2.60;;;;;;;25.07;30.14;95052.91;5025914;28;20073;-58
2022/01/16 10:48:36;;;;;;;6.20;2.92;;;;;;;25.09;29.89;95059.56;5021418;28;20037;-58
2022/01/16 10:51:04;;;;;;;6.40;2.72;;;;;;;25.10;29.84;95060.34;4998158;28;20059;-58
2022/01/16 10:53:39;;;;;;;7.72;2.40;;;;;;;25.06;30.14;95051.31;5019438;28;20047;-58
2022/01/16 10:56:14;;;;;;;7.13;2.80;;;;;;;25.08;30.13;95059.84;5017248;28;20033;-58
2022/01/16 10:58:45;;;;;;;7.18;2.60;;;;;;;25.06;29.90;95054.78;4995896;28;20022;-58
2022/01/16 11:01:19;;;;;;;9.23;2.60;;;;;;;25.11;30.01;95051.28;5003730;28;20029;-58
2022/01/16 11:03:53;;;;;;;5.05;2.45;;;;;;;25.06;30.25;95057.44;5015357;28;20063;-58
2022/01/16 11:06:21;;;;;;;7.75;2.70;;;;;;;25.11;29.98;95048.63;5001838;28;20045;-58
2022/01/16 11:09:06;;;;;;;10.00;2.67;;;;;;;25.12;29.94;95053.69;5021844;28;20048;-57
2022/01/16 11:11:32;;;;;;;4.60;2.45;;;;;;;25.15;30.26;95055.81;5029258;28;20049;-57
2022/01/16 11:14:04;;;;;;;5.65;2.60;;;;;;;25.17;29.68;95044.88;5012656;28;20051;-58
2022/01/16 11:16:29;;;;;;;5.93;2.50;;;;;;;25.16;30.10;95048.59;5027767;28;20041;-57
2022/01/16 11:19:09;;;;;;;8.43;3.05;;;;;;;25.15;29.94;95042.50;5010026;28;20059;-58
2022/01/16 11:21:41;;;;;;;5.03;2.80;;;;;;;25.13;30.39;95039.31;5039142;28;20037;-58
2022/01/16 11:26:44;;;;;;;3.60;2.70;;;;;;;25.13;30.35;95044.63;5029647;28;20044;-58
2022/01/16 11:29:12;;;;;;;8.70;2.50;;;;;;;25.17;30.06;95043.03;5042717;28;20045;-58
2022/01/16 11:31:45;;;;;;;4.60;2.50;;;;;;;25.15;30.47;95047.81;5014679;28;20042;-58
2022/01/16 11:34:13;;;;;;;5.10;2.40;;;;;;;25.15;30.39;95041.69;5029022;28;20073;-58
2022/01/16 11:36:40;;;;;;;7.65;2.70;;;;;;;25.16;29.71;95045.94;5033192;28;20064;-58
2022/01/16 11:39:08;;;;;;;8.27;2.53;;;;;;;25.15;30.39;95041.69;5017840;28;20037;-58
2022/01/16 11:41:50;;;;;;;4.75;2.70;;;;;;;25.10;30.25;95050.50;5011205;28;20128;-58
2022/01/16 11:44:27;;;;;;;5.25;2.80;;;;;;;25.15;30.53;95047.81;5003078;28;20104;-58
2022/01/16 11:46:55;;;;;;;7.05;2.63;;;;;;;25.15;30.21;95047.00;5033517;28;20037;-58
2022/01/16 11:49:38;;;;;;;5.55;2.78;;;;;;;25.17;30.28;95039.56;5022161;28;20131;-58
2022/01/16 11:52:10;;;;;;;7.93;2.67;;;;;;;25.17;30.37;95043.03;5016579;28;20145;-58
2022/01/16 11:54:49;;;;;;;5.53;2.47;;;;;;;25.20;30.15;95044.31;5012963;28;20033;-58
2022/01/16 11:57:36;;;;;;;6.68;2.47;;;;;;;25.24;30.32;95039.28;5000801;28;20084;-58
2022/01/16 12:00:15;;;;;;;7.03;2.33;;;;;;;25.22;30.63;95036.06;5007486;28;20033;-58
2022/01/16 12:02:52;;;;;;;6.60;2.40;;;;;;;25.18;30.46;95036.59;5026187;28;20061;-58
2022/01/16 12:05:26;;;;;;;6.20;2.70;;;;;;;25.15;30.45;95039.84;5012919;28;20041;-58
2022/01/16 12:07:56;;;;;;;5.88;2.50;;;;;;;25.22;30.19;95039.53;5019485;28;20034;-58
2022/01/16 12:10:50;;;;;;;5.43;2.80;;;;;;;25.31;30.14;95037.91;5038112;28;20045;-58
2022/01/16 12:13:44;;;;;;;4.78;2.40;;;;;;;25.30;30.26;95036.34;5018963;28;20014;-58
2022/01/16 12:16:40;;;;;;;7.05;2.45;;;;;;;25.31;30.70;95040.56;5015142;28;20097;-58
2022/01/16 12:19:34;;;;;;;4.50;2.20;;;;;;;25.31;30.39;95035.25;5015511;28;20132;-58
2022/01/16 12:22:00;;;;;;;6.07;2.65;;;;;;;25.22;30.65;95034.19;5013228;28;20037;-58
2022/01/16 12:24:43;;;;;;;4.43;2.55;;;;;;;25.22;30.55;95031.53;5020580;28;20036;-58
2022/01/16 12:27:26;;;;;;;5.97;2.63;;;;;;;25.32;30.44;95036.84;5012992;28;20048;-58
2022/01/16 12:30:31;;;;;;;3.60;2.47;;;;;;;25.36;30.47;95034.44;5012359;28;20040;-58